Time;durP1;ratioP1;P1;durP2;ratioP2;P2;SDS_P1;SDS_P2;PMS_P1;PMS_P2;Temp;Humidity;BMP_temperature;BMP_pressure;BME280_temperature;BME280_humidity;BME280_pressure;Samples;Min_cycle;Max_cycle;Signal;HPM_P1;HPM_P2
2021/03/28 00:00:13;;;;;;;3.90;1.67;;;;;;;5.16;58.09;97987.81;5009353;28;20052;-66
2021/03/28 00:02:51;;;;;;;6.15;1.40;;;;;;;4.86;60.61;97991.50;4990867;28;20209;-67
2021/03/28 00:05:23;;;;;;;6.65;1.63;;;;;;;4.56;63.45;97999.50;4968829;28;20046;-66
2021/03/28 00:07:58;;;;;;;4.07;1.75;;;;;;;4.73;60.51;97995.00;4995832;28;20158;-66
2021/03/28 00:10:40;;;;;;;6.32;1.60;;;;;;;4.60;61.46;97993.22;5015265;28;20049;-67
2021/03/28 00:13:25;;;;;;;3.80;1.60;;;;;;;4.34;62.35;97994.03;5014069;28;21002;-67
2021/03/28 00:15:57;;;;;;;5.18;1.48;;;;;;;4.35;62.05;97995.69;5008293;28;20513;-66
2021/03/28 00:19:09;;;;;;;5.15;1.60;;;;;;;3.93;64.38;97994.88;5012201;28;20049;-67
2021/03/28 00:21:49;;;;;;;5.63;1.33;;;;;;;4.05;63.31;97991.53;5012433;28;20120;-67
2021/03/28 00:24:20;;;;;;;4.43;1.45;;;;;;;4.11;62.74;97993.75;5011292;28;20472;-66
2021/03/28 00:27:17;;;;;;;4.32;1.35;;;;;;;4.45;61.25;97997.59;4997460;28;20186;-67
2021/03/28 00:30:01;;;;;;;4.05;1.50;;;;;;;4.60;60.39;97994.97;5015621;28;20052;-66
2021/03/28 00:32:46;;;;;;;3.85;1.40;;;;;;;4.76;59.87;98005.09;5009557;28;20522;-66
2021/03/28 00:35:16;;;;;;;5.10;1.73;;;;;;;4.71;59.72;97994.28;5009857;28;20045;-67
2021/03/28 00:37:44;;;;;;;3.83;1.65;;;;;;;4.78;59.67;97998.09;5015891;28;20052;-67
2021/03/28 00:40:10;;;;;;;2.85;1.30;;;;;;;4.66;60.26;97999.72;5012357;28;20056;-67
2021/03/28 00:42:42;;;;;;;4.45;1.85;;;;;;;4.88;59.62;98007.72;5012518;28;20499;-67
2021/03/28 00:45:23;;;;;;;9.18;1.90;;;;;;;4.92;59.43;98004.94;5011136;28;20038;-66
2021/03/28 00:48:10;;;;;;;8.68;2.28;;;;;;;4.90;59.34;97999.88;5005668;28;20042;-66
2021/03/28 00:50:51;;;;;;;5.10;1.88;;;;;;;4.90;59.64;97994.72;5006016;28;20636;-67
2021/03/28 00:53:38;;;;;;;4.97;1.42;;;;;;;4.96;59.34;97998.66;5029929;28;20046;-67
2021/03/28 00:56:17;;;;;;;3.42;1.50;;;;;;;4.86;62.05;97996.66;5008597;28;20092;-66
2021/03/28 00:58:47;;;;;;;5.88;1.80;;;;;;;4.82;62.02;98002.13;5011913;28;20058;-66
2021/03/28 01:02:03;;;;;;;7.43;1.88;;;;;;;4.68;62.38;98003.03;5013993;28;20068;-67
2021/03/28 01:05:05;;;;;;;5.60;1.77;;;;;;;4.82;61.49;97984.06;5012320;28;20489;-67
2021/03/28 01:07:31;;;;;;;4.47;1.70;;;;;;;4.64;63.68;97991.25;5000647;28;20057;-67
2021/03/28 01:10:20;;;;;;;4.47;1.70;;;;;;;4.40;66.71;97994.50;5017591;28;20140;-67
2021/03/28 01:13:23;;;;;;;5.95;1.70;;;;;;;4.58;61.52;97987.31;5010986;28;20521;-66
2021/03/28 01:16:27;;;;;;;3.83;1.40;;;;;;;4.75;63.31;97988.00;5008995;28;20046;-66
2021/03/28 01:19:09;;;;;;;2.50;1.60;;;;;;;4.59;63.94;97972.66;5012843;28;20038;-67
2021/03/28 01:21:38;;;;;;;3.80;1.77;;;;;;;4.44;64.04;97985.59;5014239;28;20058;-66
2021/03/28 01:24:29;;;;;;;6.15;1.63;;;;;;;4.71;61.28;97987.34;5010287;28;20486;-66
2021/03/28 01:27:10;;;;;;;6.20;1.60;;;;;;;4.82;60.26;97986.66;5007745;28;20399;-66
2021/03/28 01:29:43;;;;;;;4.57;1.40;;;;;;;4.97;59.77;97977.06;5015048;28;20061;-66
2021/03/28 01:32:26;;;;;;;6.80;2.25;;;;;;;4.82;60.35;97984.06;5007830;28;20042;-66
2021/03/28 01:35:02;;;;;;;5.40;1.67;;;;;;;4.91;60.23;97983.50;5016285;28;20037;-66
2021/03/28 01:37:50;;;;;;;5.38;1.70;;;;;;;4.89;60.67;97985.34;5015321;28;20395;-66
2021/03/28 01:40:51;;;;;;;5.03;1.87;;;;;;;4.87;60.90;97987.19;5010911;28;20050;-67
2021/03/28 01:43:34;;;;;;;6.05;1.85;;;;;;;4.78;60.75;97972.28;5015090;28;20282;-66
2021/03/28 01:46:24;;;;;;;8.40;2.10;;;;;;;4.89;60.68;97968.09;5017689;28;20052;-66
2021/03/28 01:48:56;;;;;;;7.18;2.10;;;;;;;4.85;61.02;97971.00;5014603;28;20048;-67
2021/03/28 01:51:28;;;;;;;4.63;1.80;;;;;;;4.88;61.30;97971.59;5012907;28;20058;-66
2021/03/28 01:54:13;;;;;;;5.30;2.00;;;;;;;5.00;61.17;97957.06;5031578;28;20045;-67
2021/03/28 01:57:02;;;;;;;5.15;2.38;;;;;;;4.96;61.31;97970.28;5011165;28;20045;-66
2021/03/28 01:59:52;;;;;;;4.68;1.85;;;;;;;4.92;61.70;97963.66;5013331;28;20141;-67
2021/03/28 02:02:39;;;;;;;5.68;1.80;;;;;;;4.77;62.61;97963.75;5008058;28;20083;-66
2021/03/28 02:05:53;;;;;;;3.65;1.73;;;;;;;4.80;62.54;97960.94;5014641;28;20033;-66
2021/03/28 02:08:34;;;;;;;3.85;1.63;;;;;;;4.85;62.77;97968.41;5010176;28;20125;-66
2021/03/28 02:11:22;;;;;;;7.25;2.08;;;;;;;4.81;62.96;97975.50;5013646;28;20048;-66
2021/03/28 02:14:14;;;;;;;4.90;2.00;;;;;;;4.65;63.76;97973.09;5026985;28;20041;-66
2021/03/28 02:17:00;;;;;;;5.97;1.92;;;;;;;4.93;62.88;97975.63;5013744;28;20053;-66
2021/03/28 02:19:36;;;;;;;6.50;2.53;;;;;;;4.70;63.70;97965.06;5004992;28;20046;-66
2021/03/28 02:22:31;;;;;;;6.53;2.40;;;;;;;4.69;64.08;97976.31;5012957;28;20046;-66
2021/03/28 02:25:17;;;;;;;5.60;2.47;;;;;;;4.64;64.07;97971.44;5011254;28;20069;-66
2021/03/28 02:27:50;;;;;;;7.38;2.22;;;;;;;4.69;64.24;97964.22;5006213;28;20070;-66
2021/03/28 02:30:40;;;;;;;4.57;2.20;;;;;;;4.60;64.26;97962.25;5010598;28;20062;-66
2021/03/28 02:33:24;;;;;;;3.88;2.03;;;;;;;4.65;64.46;97957.63;5022514;28;20210;-66
2021/03/28 02:36:14;;;;;;;4.13;2.15;;;;;;;4.58;64.78;97958.94;5012804;28;20044;-67
2021/03/28 02:39:05;;;;;;;6.90;2.00;;;;;;;4.68;64.40;97952.28;5014444;28;20042;-67
2021/03/28 02:41:37;;;;;;;7.05;2.30;;;;;;;4.78;64.06;97955.06;5009705;28;20060;-67
2021/03/28 02:44:28;;;;;;;6.95;2.13;;;;;;;4.70;64.65;97959.91;5012895;28;20037;-66
2021/03/28 02:47:07;;;;;;;5.60;2.00;;;;;;;4.42;65.78;97953.97;5015760;28;20046;-67
2021/03/28 02:49:52;;;;;;;14.50;3.08;;;;;;;4.53;65.34;97957.59;5013874;28;20053;-66
2021/03/28 02:52:27;;;;;;;6.60;2.10;;;;;;;4.50;65.77;97958.63;5009277;28;20046;-67
2021/03/28 02:55:18;;;;;;;6.93;1.77;;;;;;;4.71;64.78;97960.75;5010592;28;20112;-67
2021/03/28 02:57:57;;;;;;;6.45;2.30;;;;;;;4.78;64.62;97946.50;5015591;28;20509;-66
2021/03/28 03:00:46;;;;;;;7.75;1.98;;;;;;;4.67;65.14;97950.59;5002585;28;20124;-67
2021/03/28 03:03:22;;;;;;;6.07;2.30;;;;;;;4.65;64.91;97952.44;5011921;28;20478;-67
2021/03/28 03:06:19;;;;;;;6.53;2.20;;;;;;;4.76;64.69;97956.09;5010102;28;20038;-67
2021/03/28 03:09:07;;;;;;;10.10;2.67;;;;;;;4.35;68.16;97960.44;5012323;28;20464;-66
2021/03/28 03:11:57;;;;;;;7.50;3.03;;;;;;;4.11;69.48;97956.81;5014027;28;20037;-66
2021/03/28 03:15:00;;;;;;;7.50;3.22;;;;;;;4.13;70.44;97960.97;5014901;28;20233;-67
2021/03/28 03:18:03;;;;;;;12.15;2.85;;;;;;;3.99;70.26;97964.41;5014299;28;20545;-66
2021/03/28 03:20:51;;;;;;;7.15;2.70;;;;;;;4.09;69.92;97959.50;5012909;28;20485;-66
2021/03/28 03:23:51;;;;;;;6.22;2.67;;;;;;;4.03;71.57;97962.47;5012521;28;20045;-66
2021/03/28 03:26:23;;;;;;;8.75;2.30;;;;;;;4.00;69.61;97963.50;5018736;28;20046;-66
2021/03/28 03:29:26;;;;;;;6.95;2.03;;;;;;;4.11;69.42;97960.25;5013647;28;20379;-67
2021/03/28 03:32:03;;;;;;;7.93;2.40;;;;;;;4.18;70.46;97964.06;5014876;28;20571;-67
2021/03/28 03:35:03;;;;;;;5.82;2.25;;;;;;;3.93;71.64;97961.38;5015377;28;20043;-67
2021/03/28 03:37:38;;;;;;;;;;;;;;;3.90;72.05;97957.25;5016595;28;20050;-67
2021/03/28 03:40:32;;;;;;;5.38;2.00;;;;;;;3.66;72.06;97962.16;5014170;28;19921;-67
2021/03/28 03:43:18;;;;;;;4.57;1.90;;;;;;;3.97;71.02;97965.41;5014420;28;20053;-66
2021/03/28 03:46:00;;;;;;;4.15;2.10;;;;;;;4.11;70.74;97962.81;5031297;28;20060;-67
2021/03/28 03:48:35;;;;;;;7.70;2.25;;;;;;;3.93;68.66;97963.97;5010565;28;20053;-66
2021/03/28 03:51:44;;;;;;;7.80;2.10;;;;;;;3.97;70.57;97957.69;5013793;28;20038;-66
2021/03/28 03:54:35;;;;;;;8.15;2.30;;;;;;;3.67;71.18;97949.19;5015528;28;20041;-67
2021/03/28 03:57:20;;;;;;;7.95;2.83;;;;;;;3.57;69.97;97957.56;5013872;28;20049;-67
2021/03/28 03:59:52;;;;;;;5.32;2.60;;;;;;;3.56;72.24;97959.31;5030113;28;20042;-67
2021/03/28 04:02:38;;;;;;;5.75;2.45;;;;;;;3.27;73.94;97966.22;5016585;28;20045;-67
2021/03/28 04:05:42;;;;;;;6.32;2.40;;;;;;;3.04;74.06;97963.25;5012266;28;20045;-66
2021/03/28 04:08:11;;;;;;;8.77;2.30;;;;;;;3.18;72.56;97959.88;5001743;28;20237;-67
2021/03/28 04:10:48;;;;;;;7.68;2.83;;;;;;;3.05;72.99;97969.25;5016139;28;20409;-66
2021/03/28 04:13:27;;;;;;;7.88;2.70;;;;;;;3.11;71.96;97971.44;5011088;28;20262;-66
2021/03/28 04:16:08;;;;;;;8.45;2.97;;;;;;;2.98;73.73;97966.16;5013954;28;20157;-67
2021/03/28 04:18:40;;;;;;;8.30;2.80;;;;;;;2.99;73.20;97972.97;5016192;28;20045;-66
2021/03/28 04:21:18;;;;;;;4.20;2.67;;;;;;;3.03;73.37;97963.34;5013119;28;20052;-67
2021/03/28 04:24:12;;;;;;;7.50;3.15;;;;;;;2.96;72.86;97972.31;5010776;28;20042;-66
2021/03/28 04:27:29;;;;;;;5.82;2.90;;;;;;;2.59;73.95;97972.69;5031842;28;20049;-67
2021/03/28 04:29:56;;;;;;;11.85;3.35;;;;;;;2.59;74.51;97972.69;4992094;28;20061;-67
2021/03/28 04:32:56;;;;;;;9.60;3.45;;;;;;;2.64;73.99;97982.72;4973985;28;20060;-67
2021/03/28 04:35:32;;;;;;;6.50;3.47;;;;;;;2.44;74.70;97981.28;5008169;28;20498;-67
2021/03/28 04:38:22;;;;;;;5.60;3.10;;;;;;;2.13;75.29;97987.28;5011060;28;20389;-66
2021/03/28 04:41:02;;;;;;;6.80;3.55;;;;;;;2.06;75.36;97984.22;5011836;28;20367;-67
2021/03/28 04:43:55;;;;;;;8.15;3.33;;;;;;;2.00;76.09;97981.97;5015392;28;20038;-67
2021/03/28 04:46:27;;;;;;;7.78;3.15;;;;;;;1.81;76.19;97988.09;5013227;28;20041;-67
2021/03/28 04:49:21;;;;;;;6.13;2.78;;;;;;;2.05;75.29;97990.25;5011104;28;20046;-66
2021/03/28 04:52:40;;;;;;;9.23;3.25;;;;;;;1.59;76.32;97995.28;5013082;28;20038;-67
2021/03/28 04:55:26;;;;;;;10.02;3.58;;;;;;;1.59;76.92;98000.41;5013291;28;20109;-66
2021/03/28 04:58:01;;;;;;;8.02;3.58;;;;;;;1.59;76.37;97997.84;5010129;28;20041;-66
2021/03/28 05:00:30;;;;;;;8.38;3.60;;;;;;;1.41;76.78;98002.19;5003806;28;20049;-66
2021/03/28 05:03:27;;;;;;;6.85;3.60;;;;;;;1.37;77.00;98005.81;5015721;28;20424;-66
2021/03/28 05:06:19;;;;;;;7.38;3.28;;;;;;;1.29;77.77;98010.50;5009277;28;20048;-66
2021/03/28 05:08:56;;;;;;;5.57;2.95;;;;;;;1.48;77.08;98007.81;5008097;28;20048;-66
2021/03/28 05:11:52;;;;;;;7.20;3.22;;;;;;;1.21;78.04;98014.28;5005724;28;20050;-66
2021/03/28 05:14:44;;;;;;;6.65;3.40;;;;;;;1.45;77.37;98025.94;5011363;28;20045;-65
2021/03/28 05:17:41;;;;;;;11.27;4.00;;;;;;;1.02;78.48;98024.63;5009132;28;20053;-66
2021/03/28 05:20:41;;;;;;;7.28;3.20;;;;;;;1.28;77.91;98030.19;5005918;28;20061;-66
2021/03/28 05:23:17;;;;;;;7.85;2.80;;;;;;;1.29;76.83;98028.44;4995263;28;20045;-66
2021/03/28 05:26:14;;;;;;;6.05;3.17;;;;;;;1.12;78.75;98031.84;5009103;28;20508;-66
2021/03/28 05:29:02;;;;;;;5.90;2.95;;;;;;;1.22;78.03;98039.00;5007119;28;20092;-66
2021/03/28 05:31:48;;;;;;;6.55;3.22;;;;;;;1.27;78.26;98043.94;5015586;28;20049;-66
2021/03/28 05:34:22;;;;;;;6.90;3.40;;;;;;;1.26;77.13;98049.97;5011774;28;20037;-66
2021/03/28 05:37:38;;;;;;;5.60;3.00;;;;;;;1.50;77.30;98059.91;5009926;28;20471;-66
2021/03/28 05:40:09;;;;;;;13.57;5.25;;;;;;;1.63;76.20;98060.94;5009754;28;20513;-66
2021/03/28 05:43:14;;;;;;;20.08;7.82;;;;;;;1.89;75.13;98054.44;5007147;28;20079;-66
2021/03/28 05:45:59;;;;;;;10.90;6.00;;;;;;;1.91;76.31;98069.78;5016683;28;20076;-66
2021/03/28 05:48:43;;;;;;;27.98;13.90;;;;;;;2.49;73.54;98065.84;5008358;28;20046;-66
2021/03/28 05:51:27;;;;;;;22.02;10.48;;;;;;;2.75;72.96;98072.94;5010319;28;20375;-66
2021/03/28 05:53:53;;;;;;;23.38;8.95;;;;;;;2.94;72.95;98082.19;5009488;28;20053;-66
2021/03/28 05:56:40;;;;;;;16.02;7.95;;;;;;;3.25;72.07;98084.69;5004420;28;20041;-66
2021/03/28 05:59:33;;;;;;;29.88;8.80;;;;;;;3.64;70.97;98087.59;5013696;28;20050;-66
2021/03/28 06:02:26;;;;;;;14.63;6.53;;;;;;;3.73;70.91;98092.22;5013622;28;20069;-67
2021/03/28 06:05:24;;;;;;;18.50;6.20;;;;;;;4.05;71.28;98087.72;5008997;28;20208;-67
2021/03/28 06:08:11;;;;;;;13.68;5.90;;;;;;;3.80;71.38;98088.34;5016207;28;20077;-68
2021/03/28 06:11:16;;;;;;;14.35;6.03;;;;;;;4.24;69.60;98086.59;5013442;28;20125;-66
2021/03/28 06:14:16;;;;;;;12.85;5.88;;;;;;;4.32;68.59;98083.53;5028063;28;20132;-66
2021/03/28 06:17:02;;;;;;;9.63;4.88;;;;;;;4.67;67.50;98095.06;5010061;28;20045;-67
2021/03/28 06:19:52;;;;;;;11.70;4.30;;;;;;;4.93;66.48;98096.91;5016790;28;20498;-67
2021/03/28 06:22:57;;;;;;;9.45;3.40;;;;;;;5.23;64.74;98100.09;5013089;28;20486;-66
2021/03/28 06:25:48;;;;;;;10.10;3.20;;;;;;;5.50;62.06;98112.13;5009743;28;20124;-66
2021/03/28 06:28:51;;;;;;;10.20;3.22;;;;;;;5.65;61.81;98111.13;5016962;28;20488;-66
2021/03/28 06:31:50;;;;;;;8.80;2.53;;;;;;;5.67;61.56;98111.00;5019701;28;20053;-66
2021/03/28 06:34:52;;;;;;;13.90;3.22;;;;;;;5.81;60.41;98112.66;5015501;28;20157;-68
2021/03/28 06:37:56;;;;;;;10.85;3.22;;;;;;;6.32;60.41;98112.66;5010369;28;20073;-67
2021/03/28 06:40:39;;;;;;;11.95;3.22;;;;;;;6.55;58.82;98118.00;5015067;28;20061;-68
2021/03/28 06:43:24;;;;;;;75.75;5.00;;;;;;;7.01;57.90;98120.72;5019150;28;20042;-68
2021/03/28 06:46:38;;;;;;;5.80;2.47;;;;;;;7.07;55.87;98122.03;5010656;28;20133;-68
2021/03/28 06:49:25;;;;;;;6.25;2.55;;;;;;;7.13;56.00;98127.59;5012266;28;20045;-66
2021/03/28 06:52:16;;;;;;;8.35;2.83;;;;;;;7.33;55.81;98138.28;5019440;28;20053;-66
2021/03/28 06:55:20;;;;;;;7.88;2.50;;;;;;;7.11;56.66;98132.06;5017849;28;20041;-67
2021/03/28 06:58:04;;;;;;;5.65;1.98;;;;;;;7.05;57.32;98135.09;5012234;28;20076;-67
2021/03/28 07:00:55;;;;;;;6.38;1.90;;;;;;;6.93;57.60;98143.75;5012836;28;20038;-66
2021/03/28 07:03:27;;;;;;;6.00;1.90;;;;;;;7.46;55.80;98144.19;5012618;28;20097;-63
2021/03/28 07:06:14;;;;;;;5.53;1.80;;;;;;;7.54;56.93;98138.47;4999106;28;20404;-67
2021/03/28 07:09:08;;;;;;;5.15;2.10;;;;;;;7.66;55.14;98147.09;5012787;28;20069;-67
2021/03/28 07:11:48;;;;;;;6.85;2.65;;;;;;;7.93;53.84;98142.41;5016573;28;20490;-68
2021/03/28 07:14:45;;;;;;;13.40;3.05;;;;;;;7.91;53.59;98146.06;5015779;28;20041;-71
2021/03/28 07:17:36;;;;;;;6.72;2.60;;;;;;;7.51;55.55;98149.88;5009330;28;20477;-68
2021/03/28 07:20:24;;;;;;;5.88;2.45;;;;;;;8.01;54.70;98156.59;5015166;28;20057;-68
2021/03/28 07:23:18;;;;;;;7.65;3.03;;;;;;;7.84;54.56;98157.84;5019695;28;20132;-66
2021/03/28 07:26:00;;;;;;;6.82;2.45;;;;;;;7.37;55.52;98155.25;5011913;28;20046;-65
2021/03/28 07:28:52;;;;;;;4.22;2.00;;;;;;;8.36;52.84;98159.91;5009154;28;20042;-64
2021/03/28 07:31:40;;;;;;;4.30;2.38;;;;;;;8.54;51.88;98151.69;5009410;28;20505;-64
2021/03/28 07:34:40;;;;;;;9.70;2.70;;;;;;;9.13;50.80;98153.91;5014666;28;20053;-64
2021/03/28 07:37:43;;;;;;;6.97;2.63;;;;;;;9.43;48.94;98143.78;5010187;28;20046;-64
2021/03/28 07:40:28;;;;;;;5.43;2.60;;;;;;;9.05;49.57;98153.69;5009194;28;20048;-64
2021/03/28 07:43:11;;;;;;;5.55;2.50;;;;;;;9.24;49.17;98149.63;5011277;28;20065;-64
2021/03/28 07:45:53;;;;;;;8.10;2.30;;;;;;;8.95;50.73;98145.00;5008307;28;20120;-64
2021/03/28 07:48:40;;;;;;;5.10;2.60;;;;;;;9.55;49.04;98146.19;5022503;28;20058;-64
2021/03/28 07:51:08;;;;;;;9.57;2.22;;;;;;;8.71;49.42;98134.78;5014717;28;20056;-65
2021/03/28 07:53:56;;;;;;;5.90;1.92;;;;;;;9.18;49.18;98137.97;5009460;28;20045;-64
2021/03/28 07:56:40;;;;;;;7.97;2.35;;;;;;;9.48;47.63;98137.25;5006864;28;20630;-65
2021/03/28 07:59:44;;;;;;;8.43;2.90;;;;;;;9.31;48.95;98137.78;5009734;28;20058;-67
2021/03/28 08:02:28;;;;;;;9.93;2.92;;;;;;;9.30;49.35;98133.56;5007974;28;20041;-63
2021/03/28 08:05:21;;;;;;;5.55;2.30;;;;;;;9.85;48.20;98149.00;5013819;28;20061;-62
2021/03/28 08:07:54;;;;;;;7.53;2.40;;;;;;;9.61;48.46;98141.44;5010559;28;20054;-64
2021/03/28 08:10:32;;;;;;;5.78;2.15;;;;;;;10.07;46.59;98135.00;5009494;28;20398;-64
2021/03/28 08:13:36;;;;;;;5.88;2.10;;;;;;;10.42;45.65;98128.63;5025115;28;20494;-65
2021/03/28 08:16:30;;;;;;;6.43;2.40;;;;;;;10.76;45.23;98137.75;5023102;28;20111;-65
2021/03/28 08:19:26;;;;;;;8.98;2.80;;;;;;;10.18;45.09;98140.97;5011206;28;20045;-65
2021/03/28 08:22:14;;;;;;;7.32;2.63;;;;;;;10.31;44.48;98137.34;5010905;28;20501;-65
2021/03/28 08:25:22;;;;;;;7.78;2.40;;;;;;;9.98;44.32;98134.00;5007922;28;20041;-65
2021/03/28 08:28:26;;;;;;;10.85;2.53;;;;;;;11.00;43.83;98128.75;5011239;28;20057;-65
2021/03/28 08:31:19;;;;;;;10.90;2.78;;;;;;;11.90;41.56;98130.25;5007975;28;20048;-65
2021/03/28 08:34:34;;;;;;;9.77;2.45;;;;;;;12.67;39.13;98117.84;5006484;28;20042;-65
2021/03/28 08:37:29;;;;;;;13.07;2.88;;;;;;;11.40;41.44;98126.00;5012058;28;20540;-64
2021/03/28 08:40:49;;;;;;;61.47;5.10;;;;;;;11.85;40.53;98124.56;4994775;28;20053;-64
2021/03/28 08:43:48;;;;;;;7.20;2.45;;;;;;;11.99;40.00;98124.16;4985981;28;20043;-64
2021/03/28 08:46:53;;;;;;;6.70;2.20;;;;;;;12.01;40.61;98121.41;5008648;28;20041;-64
2021/03/28 08:49:41;;;;;;;7.90;2.28;;;;;;;13.20;39.99;98129.31;5007627;28;20046;-65
2021/03/28 08:52:17;;;;;;;9.25;2.50;;;;;;;13.79;36.31;98137.50;5011477;28;20128;-65
2021/03/28 08:55:42;;;;;;;7.15;3.00;;;;;;;12.22;39.03;98137.69;5011957;28;20042;-65
2021/03/28 08:58:29;;;;;;;9.48;2.20;;;;;;;11.31;39.51;98141.66;5014135;28;20050;-64
2021/03/28 09:01:05;;;;;;;7.95;2.05;;;;;;;11.84;38.88;98143.81;5012838;28;20050;-64
2021/03/28 09:04:11;;;;;;;7.28;2.22;;;;;;;13.12;38.02;98144.91;5015109;28;20488;-66
2021/03/28 09:06:54;;;;;;;9.45;2.58;;;;;;;13.41;36.09;98137.69;5010070;28;20049;-64
2021/03/28 09:10:11;;;;;;;9.20;2.10;;;;;;;13.77;34.97;98147.31;5010391;28;20038;-67
2021/03/28 09:12:46;;;;;;;6.78;2.15;;;;;;;12.68;36.64;98140.38;4992267;28;20133;-65
2021/03/28 09:15:37;;;;;;;6.72;2.20;;;;;;;14.35;34.50;98144.06;5014547;28;20041;-66
2021/03/28 09:18:26;;;;;;;5.90;2.20;;;;;;;15.83;33.93;98141.78;5012213;28;20401;-65
2021/03/28 09:21:38;;;;;;;6.90;2.53;;;;;;;13.92;35.38;98135.31;5010627;28;20148;-65
2021/03/28 09:24:39;;;;;;;6.15;2.20;;;;;;;16.07;32.06;98141.75;5016321;28;20053;-65
2021/03/28 09:27:31;;;;;;;6.25;2.10;;;;;;;14.97;32.48;98135.16;5014260;28;20066;-64
2021/03/28 09:30:20;;;;;;;6.50;2.40;;;;;;;17.21;29.39;98139.66;5009491;28;20100;-65
2021/03/28 09:33:05;;;;;;;10.07;2.38;;;;;;;18.08;28.16;98144.53;5028491;28;20065;-67
2021/03/28 09:36:08;;;;;;;7.10;2.25;;;;;;;16.57;31.05;98144.22;5015288;28;20056;-67
2021/03/28 09:38:40;;;;;;;6.35;2.30;;;;;;;17.57;28.51;98135.59;5012507;28;20569;-67
2021/03/28 09:41:10;;;;;;;8.68;2.60;;;;;;;21.07;27.30;98121.75;5011836;28;20061;-64
2021/03/28 09:43:57;;;;;;;5.75;1.92;;;;;;;22.55;24.46;98120.72;5015001;28;20052;-67
2021/03/28 09:46:44;;;;;;;11.47;5.40;;;;;;;24.08;21.72;98111.75;5012682;28;20049;-64
2021/03/28 09:49:49;;;;;;;7.70;2.63;;;;;;;17.73;27.88;98111.75;5011645;28;20053;-64
2021/03/28 09:52:50;;;;;;;21.42;2.70;;;;;;;20.72;23.94;98113.94;5006927;28;20042;-64
2021/03/28 09:56:10;;;;;;;5.03;1.88;;;;;;;19.36;24.99;98112.59;5009959;28;20042;-63
2021/03/28 09:59:06;;;;;;;4.88;2.05;;;;;;;19.14;25.17;98103.88;4975183;28;20142;-65
2021/03/28 10:01:42;;;;;;;5.40;1.88;;;;;;;21.38;23.07;98103.69;5029989;28;20058;-63
2021/03/28 10:04:27;;;;;;;5.70;2.47;;;;;;;23.14;21.95;98102.88;5017153;28;20371;-64
2021/03/28 10:07:02;;;;;;;6.30;2.33;;;;;;;21.60;22.89;98102.50;5017987;28;20132;-63
2021/03/28 10:09:38;;;;;;;7.93;2.22;;;;;;;18.44;24.88;98111.38;5012766;28;20429;-63
2021/03/28 10:12:32;;;;;;;5.75;2.25;;;;;;;17.89;26.12;98097.66;5014015;28;20045;-63
2021/03/28 10:15:11;;;;;;;12.30;2.45;;;;;;;23.59;20.91;98113.38;5002258;28;20056;-63
2021/03/28 10:18:20;;;;;;;7.15;2.53;;;;;;;27.74;17.12;98112.66;5010892;28;20046;-65
2021/03/28 10:20:50;;;;;;;5.05;2.10;;;;;;;26.97;16.53;98110.56;5013199;28;20077;-64
2021/03/28 10:23:26;;;;;;;6.82;2.78;;;;;;;22.63;20.20;98109.88;5015098;28;20046;-64
2021/03/28 10:26:38;;;;;;;6.43;2.25;;;;;;;26.02;17.16;98115.28;5016420;28;20050;-69
2021/03/28 10:29:28;;;;;;;5.35;2.38;;;;;;;29.94;15.13;98097.44;5018258;28;20041;-68
2021/03/28 10:32:14;;;;;;;5.95;2.35;;;;;;;25.49;17.80;98098.31;5020243;28;20060;-68
2021/03/28 10:35:04;;;;;;;4.82;2.20;;;;;;;27.28;17.24;98100.41;5016025;28;20050;-68
2021/03/28 10:37:38;;;;;;;4.03;1.92;;;;;;;23.48;19.72;98098.16;5015306;28;20045;-66
2021/03/28 10:40:25;;;;;;;6.60;2.17;;;;;;;19.80;23.42;98093.88;5017395;28;20099;-69
2021/03/28 10:43:10;;;;;;;5.25;2.20;;;;;;;19.75;23.04;98095.47;5014800;28;20059;-69
2021/03/28 10:45:53;;;;;;;8.80;5.15;;;;;;;20.71;22.94;98088.47;5014923;28;20049;-68
2021/03/28 10:48:48;;;;;;;6.72;2.30;;;;;;;23.99;18.73;98097.13;5016457;28;20060;-67
2021/03/28 10:51:52;;;;;;;5.97;1.95;;;;;;;22.45;19.70;98097.25;4997776;28;20402;-69
2021/03/28 10:54:28;;;;;;;7.63;4.30;;;;;;;24.46;19.98;98096.59;5007382;28;20065;-66
2021/03/28 10:56:54;;;;;;;10.05;3.60;;;;;;;27.54;18.71;98094.44;5016406;28;20096;-65
2021/03/28 10:59:41;;;;;;;6.25;3.53;;;;;;;25.76;17.81;98097.84;5013715;28;20053;-65
2021/03/28 11:02:19;;;;;;;5.53;2.20;;;;;;;26.74;16.83;98103.44;5016088;28;20089;-67
2021/03/28 11:05:00;;;;;;;4.68;2.05;;;;;;;27.50;16.67;98096.00;5010744;28;20052;-66
2021/03/28 11:07:29;;;;;;;5.20;2.08;;;;;;;24.07;20.26;98098.69;5014079;28;20384;-65
2021/03/28 11:10:27;;;;;;;7.10;2.22;;;;;;;32.15;13.66;98086.03;5008349;28;20516;-64
2021/03/28 11:13:12;;;;;;;4.43;1.95;;;;;;;31.94;15.95;98092.50;5014121;28;20096;-66
2021/03/28 11:16:14;;;;;;;5.55;2.22;;;;;;;34.09;12.41;98088.47;5014954;28;20050;-66
2021/03/28 11:19:17;;;;;;;5.50;2.30;;;;;;;32.00;12.94;98078.78;5008620;28;20548;-66
2021/03/28 11:22:11;;;;;;;7.20;2.83;;;;;;;38.62;10.62;98076.44;5014826;28;20038;-66
2021/03/28 11:25:11;;;;;;;8.82;5.72;;;;;;;27.81;18.84;98083.06;5008870;28;20050;-66
2021/03/28 11:28:01;;;;;;;5.93;2.40;;;;;;;32.48;14.48;98075.66;5013721;28;20061;-68
2021/03/28 11:30:39;;;;;;;6.82;1.83;;;;;;;22.86;22.44;98074.84;5012277;28;20526;-68
2021/03/28 11:33:31;;;;;;;4.28;1.80;;;;;;;30.24;14.97;98086.03;5007933;28;20125;-67
2021/03/28 11:36:02;;;;;;;4.95;1.92;;;;;;;31.50;14.06;98082.34;5008225;28;20038;-68
2021/03/28 11:38:43;;;;;;;6.07;2.17;;;;;;;34.53;13.06;98092.84;5012612;28;20567;-69
2021/03/28 11:41:12;;;;;;;6.68;1.98;;;;;;;33.54;13.51;98091.44;5010597;28;20038;-68
2021/03/28 11:43:45;;;;;;;3.55;1.83;;;;;;;33.60;12.35;98070.63;5013241;28;20040;-68
2021/03/28 11:46:35;;;;;;;3.38;1.73;;;;;;;31.55;13.56;98066.19;5007145;28;20045;-68
2021/03/28 11:49:08;;;;;;;6.38;2.08;;;;;;;32.28;13.05;98059.56;5013972;28;20091;-68
2021/03/28 11:51:35;;;;;;;3.38;1.70;;;;;;;31.90;13.00;98045.66;5014594;28;20052;-68
2021/03/28 11:54:11;;;;;;;5.40;2.20;;;;;;;35.59;13.59;98047.44;5010529;28;20107;-68
2021/03/28 11:56:41;;;;;;;5.53;2.60;;;;;;;32.58;14.52;98054.06;5011840;28;20397;-68
2021/03/28 11:59:23;;;;;;;5.50;1.92;;;;;;;31.31;15.65;98050.59;5015501;28;20045;-68
2021/03/28 12:01:58;;;;;;;10.18;4.43;;;;;;;30.50;14.77;98053.94;5017100;28;20392;-68
2021/03/28 12:04:42;;;;;;;4.47;2.17;;;;;;;31.32;15.35;98051.38;5018796;28;20523;-68
2021/03/28 12:07:14;;;;;;;5.88;2.25;;;;;;;31.83;14.42;98046.75;5011014;28;20425;-68
2021/03/28 12:09:45;;;;;;;8.23;3.20;;;;;;;32.73;13.74;98057.78;5011522;28;20046;-68
2021/03/28 12:12:25;;;;;;;41.53;32.17;;;;;;;27.94;17.78;98052.50;5017485;28;20401;-68
2021/03/28 12:14:52;;;;;;;17.98;13.85;;;;;;;30.24;15.59;98043.06;5011028;28;20034;-69
2021/03/28 12:17:22;;;;;;;11.40;8.90;;;;;;;34.66;12.60;98037.28;5016410;28;20045;-68
2021/03/28 12:20:06;;;;;;;12.82;7.80;;;;;;;32.77;15.26;98038.06;5016178;28;20041;-68
2021/03/28 12:22:38;;;;;;;8.40;5.65;;;;;;;33.30;13.48;98023.91;5012628;28;20053;-68
2021/03/28 12:25:14;;;;;;;5.63;2.22;;;;;;;32.32;12.76;98031.78;5016005;28;20073;-68
2021/03/28 12:28:03;;;;;;;4.88;2.20;;;;;;;31.02;14.36;98013.47;5013748;28;20512;-67
2021/03/28 12:30:40;;;;;;;6.70;3.10;;;;;;;32.47;14.87;98020.16;5010736;28;20096;-68
2021/03/28 12:33:43;;;;;;;6.35;2.28;;;;;;;31.51;13.80;98022.06;5012380;28;20057;-67
2021/03/28 12:36:12;;;;;;;9.27;5.45;;;;;;;34.85;12.98;98013.72;5011149;28;20048;-68
2021/03/28 12:38:47;;;;;;;25.00;17.65;;;;;;;36.26;12.13;98009.88;5011936;28;20056;-68
2021/03/28 12:41:13;;;;;;;17.73;13.68;;;;;;;32.10;14.25;98010.63;5015385;28;20069;-68
2021/03/28 12:44:11;;;;;;;32.92;26.63;;;;;;;32.23;13.71;98007.31;5013660;28;20111;-68
2021/03/28 12:46:49;;;;;;;36.83;25.27;;;;;;;33.22;14.26;98000.25;5009623;28;20052;-68
2021/03/28 12:49:24;;;;;;;54.60;45.47;;;;;;;35.58;13.09;97997.91;5015484;28;20490;-68
2021/03/28 12:52:05;;;;;;;11.32;8.40;;;;;;;33.82;12.46;97991.81;5013657;28;20037;-68
2021/03/28 12:54:54;;;;;;;13.60;9.43;;;;;;;32.36;15.18;97991.63;5013166;28;20136;-70
2021/03/28 12:57:33;;;;;;;5.03;2.40;;;;;;;36.03;12.12;97991.91;5013124;28;20512;-70
2021/03/28 13:00:06;;;;;;;7.05;4.18;;;;;;;35.47;11.97;97986.44;5015547;28;20509;-70
2021/03/28 13:02:34;;;;;;;6.47;2.80;;;;;;;34.89;12.68;97986.91;5010535;28;20067;-71
2021/03/28 13:05:06;;;;;;;4.68;2.10;;;;;;;33.42;11.73;97981.16;5015235;28;20540;-69
2021/03/28 13:07:41;;;;;;;5.78;2.50;;;;;;;36.27;11.35;97983.56;5009735;28;20042;-70